sensor_id;sensor_type;location;lat;lon;timestamp;P1;durP1;ratioP1;P2;durP2;ratioP2
7160;SDS011;3622;53.576;9.978;2023-01-29T00:00:16;23.30;;;12.37;;
7160;SDS011;3622;53.576;9.978;2023-01-29T00:02:42;23.37;;;12.30;;
7160;SDS011;3622;53.576;9.978;2023-01-29T00:05:08;20.87;;;11.70;;
7160;SDS011;3622;53.576;9.978;2023-01-29T00:07:34;27.63;;;14.33;;
7160;SDS011;3622;53.576;9.978;2023-01-29T00:10:00;28.10;;;12.97;;
7160;SDS011;3622;53.576;9.978;2023-01-29T00:12:26;26.97;;;13.00;;
7160;SDS011;3622;53.576;9.978;2023-01-29T00:14:52;29.43;;;13.27;;
7160;SDS011;3622;53.576;9.978;2023-01-29T00:17:18;25.67;;;12.90;;
7160;SDS011;3622;53.576;9.978;2023-01-29T00:19:44;22.93;;;11.90;;
7160;SDS011;3622;53.576;9.978;2023-01-29T00:22:11;24.57;;;12.87;;
7160;SDS011;3622;53.576;9.978;2023-01-29T00:24:36;22.83;;;11.47;;
7160;SDS011;3622;53.576;9.978;2023-01-29T00:27:02;26.37;;;12.10;;
7160;SDS011;3622;53.576;9.978;2023-01-29T00:29:29;23.00;;;12.10;;
7160;SDS011;3622;53.576;9.978;2023-01-29T00:31:55;28.07;;;13.37;;
7160;SDS011;3622;53.576;9.978;2023-01-29T00:34:21;24.70;;;12.43;;
7160;SDS011;3622;53.576;9.978;2023-01-29T00:36:47;22.43;;;11.97;;
7160;SDS011;3622;53.576;9.978;2023-01-29T00:39:13;22.37;;;12.13;;
7160;SDS011;3622;53.576;9.978;2023-01-29T00:41:39;21.47;;;11.47;;
7160;SDS011;3622;53.576;9.978;2023-01-29T00:44:24;24.70;;;12.80;;
7160;SDS011;3622;53.576;9.978;2023-01-29T00:47:08;20.20;;;10.40;;
7160;SDS011;3622;53.576;9.978;2023-01-29T00:50:10;22.77;;;11.63;;
7160;SDS011;3622;53.576;9.978;2023-01-29T00:52:37;22.40;;;11.23;;
7160;SDS011;3622;53.576;9.978;2023-01-29T00:55:05;21.00;;;11.40;;
7160;SDS011;3622;53.576;9.978;2023-01-29T00:57:32;30.80;;;12.70;;
7160;SDS011;3622;53.576;9.978;2023-01-29T00:59:58;22.70;;;11.27;;
7160;SDS011;3622;53.576;9.978;2023-01-29T01:02:25;19.93;;;9.57;;
7160;SDS011;3622;53.576;9.978;2023-01-29T01:05:10;21.50;;;11.87;;
7160;SDS011;3622;53.576;9.978;2023-01-29T01:07:48;24.07;;;10.80;;
7160;SDS011;3622;53.576;9.978;2023-01-29T01:10:21;22.10;;;11.23;;
7160;SDS011;3622;53.576;9.978;2023-01-29T01:15:14;21.87;;;10.83;;
7160;SDS011;3622;53.576;9.978;2023-01-29T01:17:40;23.73;;;10.83;;
7160;SDS011;3622;53.576;9.978;2023-01-29T01:20:07;21.03;;;10.00;;
7160;SDS011;3622;53.576;9.978;2023-01-29T01:22:33;19.17;;;9.70;;
7160;SDS011;3622;53.576;9.978;2023-01-29T01:25:00;19.00;;;9.73;;
7160;SDS011;3622;53.576;9.978;2023-01-29T01:27:25;17.10;;;9.30;;
7160;SDS011;3622;53.576;9.978;2023-01-29T01:29:51;19.03;;;10.50;;
7160;SDS011;3622;53.576;9.978;2023-01-29T01:32:17;21.93;;;10.67;;
7160;SDS011;3622;53.576;9.978;2023-01-29T01:34:43;20.47;;;9.70;;
7160;SDS011;3622;53.576;9.978;2023-01-29T01:37:10;27.27;;;10.93;;
7160;SDS011;3622;53.576;9.978;2023-01-29T01:39:36;20.20;;;10.37;;
7160;SDS011;3622;53.576;9.978;2023-01-29T01:42:02;25.17;;;10.47;;
7160;SDS011;3622;53.576;9.978;2023-01-29T01:47:13;19.47;;;9.77;;
7160;SDS011;3622;53.576;9.978;2023-01-29T01:49:39;21.10;;;10.30;;
7160;SDS011;3622;53.576;9.978;2023-01-29T01:52:06;18.83;;;10.00;;
7160;SDS011;3622;53.576;9.978;2023-01-29T01:54:33;18.23;;;9.60;;
7160;SDS011;3622;53.576;9.978;2023-01-29T01:57:01;19.10;;;9.60;;
7160;SDS011;3622;53.576;9.978;2023-01-29T01:59:41;23.33;;;10.70;;
7160;SDS011;3622;53.576;9.978;2023-01-29T02:02:08;29.53;;;10.90;;
7160;SDS011;3622;53.576;9.978;2023-01-29T02:04:53;21.80;;;10.77;;
7160;SDS011;3622;53.576;9.978;2023-01-29T02:07:41;16.23;;;10.10;;
7160;SDS011;3622;53.576;9.978;2023-01-29T02:10:27;26.10;;;10.87;;
7160;SDS011;3622;53.576;9.978;2023-01-29T02:12:55;22.47;;;10.73;;
7160;SDS011;3622;53.576;9.978;2023-01-29T02:15:21;21.50;;;9.90;;
7160;SDS011;3622;53.576;9.978;2023-01-29T02:17:47;25.67;;;10.50;;
7160;SDS011;3622;53.576;9.978;2023-01-29T02:20:26;18.20;;;11.10;;
7160;SDS011;3622;53.576;9.978;2023-01-29T02:33:25;17.70;;;9.60;;
7160;SDS011;3622;53.576;9.978;2023-01-29T02:35:57;18.97;;;9.43;;
7160;SDS011;3622;53.576;9.978;2023-01-29T02:38:32;23.60;;;10.60;;
7160;SDS011;3622;53.576;9.978;2023-01-29T02:41:01;18.90;;;9.83;;
7160;SDS011;3622;53.576;9.978;2023-01-29T02:43:47;21.17;;;10.70;;
7160;SDS011;3622;53.576;9.978;2023-01-29T02:46:18;15.87;;;9.67;;
7160;SDS011;3622;53.576;9.978;2023-01-29T02:48:55;20.13;;;11.17;;
7160;SDS011;3622;53.576;9.978;2023-01-29T02:51:28;17.47;;;10.13;;
7160;SDS011;3622;53.576;9.978;2023-01-29T02:54:06;25.30;;;11.97;;
7160;SDS011;3622;53.576;9.978;2023-01-29T02:56:39;20.93;;;10.33;;
7160;SDS011;3622;53.576;9.978;2023-01-29T02:59:11;16.47;;;10.40;;
7160;SDS011;3622;53.576;9.978;2023-01-29T03:01:40;24.10;;;10.93;;
7160;SDS011;3622;53.576;9.978;2023-01-29T03:04:10;19.40;;;10.27;;
7160;SDS011;3622;53.576;9.978;2023-01-29T03:06:38;21.97;;;11.33;;
7160;SDS011;3622;53.576;9.978;2023-01-29T03:09:08;17.27;;;10.10;;
7160;SDS011;3622;53.576;9.978;2023-01-29T03:11:38;16.60;;;9.37;;
7160;SDS011;3622;53.576;9.978;2023-01-29T03:14:07;23.00;;;11.07;;
7160;SDS011;3622;53.576;9.978;2023-01-29T03:16:50;18.17;;;9.97;;
7160;SDS011;3622;53.576;9.978;2023-01-29T03:21:50;18.07;;;10.27;;
7160;SDS011;3622;53.576;9.978;2023-01-29T03:27:20;19.63;;;10.03;;
7160;SDS011;3622;53.576;9.978;2023-01-29T03:30:05;17.03;;;9.50;;
7160;SDS011;3622;53.576;9.978;2023-01-29T03:32:51;19.40;;;10.10;;
7160;SDS011;3622;53.576;9.978;2023-01-29T03:35:18;23.87;;;11.63;;
7160;SDS011;3622;53.576;9.978;2023-01-29T03:38:00;17.63;;;9.90;;
7160;SDS011;3622;53.576;9.978;2023-01-29T03:40:33;16.63;;;10.17;;
7160;SDS011;3622;53.576;9.978;2023-01-29T03:45:39;20.10;;;9.50;;
7160;SDS011;3622;53.576;9.978;2023-01-29T03:55:58;18.20;;;10.17;;
7160;SDS011;3622;53.576;9.978;2023-01-29T03:58:37;16.33;;;9.60;;
7160;SDS011;3622;53.576;9.978;2023-01-29T04:01:15;14.93;;;9.27;;
7160;SDS011;3622;53.576;9.978;2023-01-29T04:03:47;17.43;;;10.07;;
7160;SDS011;3622;53.576;9.978;2023-01-29T04:06:18;15.43;;;9.47;;
7160;SDS011;3622;53.576;9.978;2023-01-29T04:08:58;18.33;;;10.40;;
7160;SDS011;3622;53.576;9.978;2023-01-29T04:11:27;14.70;;;9.47;;
7160;SDS011;3622;53.576;9.978;2023-01-29T04:13:54;16.70;;;10.60;;
7160;SDS011;3622;53.576;9.978;2023-01-29T04:16:30;16.07;;;8.70;;
7160;SDS011;3622;53.576;9.978;2023-01-29T04:18:58;16.50;;;9.50;;
7160;SDS011;3622;53.576;9.978;2023-01-29T04:21:24;19.20;;;10.23;;
7160;SDS011;3622;53.576;9.978;2023-01-29T04:23:50;16.97;;;9.70;;
7160;SDS011;3622;53.576;9.978;2023-01-29T04:31:48;19.67;;;10.90;;
7160;SDS011;3622;53.576;9.978;2023-01-29T04:36:58;18.40;;;10.47;;
7160;SDS011;3622;53.576;9.978;2023-01-29T04:39:43;19.73;;;10.70;;
7160;SDS011;3622;53.576;9.978;2023-01-29T04:42:30;21.30;;;9.60;;
7160;SDS011;3622;53.576;9.978;2023-01-29T04:44:58;17.33;;;9.47;;
7160;SDS011;3622;53.576;9.978;2023-01-29T04:52:23;21.00;;;9.70;;
7160;SDS011;3622;53.576;9.978;2023-01-29T04:55:13;17.30;;;10.17;;
7160;SDS011;3622;53.576;9.978;2023-01-29T05:00:14;57.63;;;26.40;;
7160;SDS011;3622;53.576;9.978;2023-01-29T05:02:42;18.97;;;10.33;;
7160;SDS011;3622;53.576;9.978;2023-01-29T05:05:09;29.57;;;13.60;;
7160;SDS011;3622;53.576;9.978;2023-01-29T05:07:36;30.43;;;14.57;;
7160;SDS011;3622;53.576;9.978;2023-01-29T05:10:04;25.83;;;13.47;;
7160;SDS011;3622;53.576;9.978;2023-01-29T05:12:30;16.83;;;10.17;;
7160;SDS011;3622;53.576;9.978;2023-01-29T05:14:57;19.33;;;10.83;;
7160;SDS011;3622;53.576;9.978;2023-01-29T05:17:25;22.33;;;10.60;;
7160;SDS011;3622;53.576;9.978;2023-01-29T05:19:51;20.17;;;10.60;;
7160;SDS011;3622;53.576;9.978;2023-01-29T05:22:19;18.70;;;9.87;;
7160;SDS011;3622;53.576;9.978;2023-01-29T05:24:47;20.07;;;10.50;;
7160;SDS011;3622;53.576;9.978;2023-01-29T05:27:15;22.17;;;9.80;;
7160;SDS011;3622;53.576;9.978;2023-01-29T05:30:00;19.57;;;9.90;;
7160;SDS011;3622;53.576;9.978;2023-01-29T05:32:26;19.60;;;10.33;;
7160;SDS011;3622;53.576;9.978;2023-01-29T05:34:52;22.97;;;11.17;;
7160;SDS011;3622;53.576;9.978;2023-01-29T05:37:18;22.60;;;11.77;;
7160;SDS011;3622;53.576;9.978;2023-01-29T05:39:44;18.20;;;10.10;;
7160;SDS011;3622;53.576;9.978;2023-01-29T05:42:10;19.60;;;10.10;;
7160;SDS011;3622;53.576;9.978;2023-01-29T05:44:36;21.13;;;10.80;;
7160;SDS011;3622;53.576;9.978;2023-01-29T05:47:02;23.27;;;11.70;;
7160;SDS011;3622;53.576;9.978;2023-01-29T05:49:28;24.00;;;11.70;;
7160;SDS011;3622;53.576;9.978;2023-01-29T05:51:54;18.87;;;10.70;;
7160;SDS011;3622;53.576;9.978;2023-01-29T05:54:20;20.33;;;10.73;;
7160;SDS011;3622;53.576;9.978;2023-01-29T05:56:46;21.50;;;11.60;;
7160;SDS011;3622;53.576;9.978;2023-01-29T05:59:12;23.70;;;11.57;;
7160;SDS011;3622;53.576;9.978;2023-01-29T06:01:39;18.73;;;10.73;;
7160;SDS011;3622;53.576;9.978;2023-01-29T06:04:05;21.23;;;11.97;;
7160;SDS011;3622;53.576;9.978;2023-01-29T06:06:31;19.60;;;11.10;;
7160;SDS011;3622;53.576;9.978;2023-01-29T06:08:57;18.63;;;11.20;;
7160;SDS011;3622;53.576;9.978;2023-01-29T06:11:24;20.03;;;10.43;;
7160;SDS011;3622;53.576;9.978;2023-01-29T06:13:50;18.83;;;10.60;;
7160;SDS011;3622;53.576;9.978;2023-01-29T06:16:16;20.60;;;11.30;;
7160;SDS011;3622;53.576;9.978;2023-01-29T06:18:42;17.20;;;10.13;;
7160;SDS011;3622;53.576;9.978;2023-01-29T06:21:09;20.57;;;10.30;;
7160;SDS011;3622;53.576;9.978;2023-01-29T06:23:35;18.70;;;10.27;;
7160;SDS011;3622;53.576;9.978;2023-01-29T06:26:02;19.50;;;10.47;;
7160;SDS011;3622;53.576;9.978;2023-01-29T06:28:29;16.40;;;9.97;;
7160;SDS011;3622;53.576;9.978;2023-01-29T06:31:01;20.30;;;10.47;;
7160;SDS011;3622;53.576;9.978;2023-01-29T06:33:27;21.50;;;11.40;;
7160;SDS011;3622;53.576;9.978;2023-01-29T06:35:58;21.93;;;10.93;;
7160;SDS011;3622;53.576;9.978;2023-01-29T06:38:24;26.33;;;11.63;;
7160;SDS011;3622;53.576;9.978;2023-01-29T06:40:51;23.77;;;10.07;;
7160;SDS011;3622;53.576;9.978;2023-01-29T06:43:17;18.20;;;10.80;;
7160;SDS011;3622;53.576;9.978;2023-01-29T06:45:47;21.27;;;11.40;;
7160;SDS011;3622;53.576;9.978;2023-01-29T06:48:13;21.70;;;11.07;;
7160;SDS011;3622;53.576;9.978;2023-01-29T06:50:39;21.27;;;11.00;;
7160;SDS011;3622;53.576;9.978;2023-01-29T06:53:05;18.10;;;10.47;;
7160;SDS011;3622;53.576;9.978;2023-01-29T06:55:30;22.40;;;11.80;;
7160;SDS011;3622;53.576;9.978;2023-01-29T06:57:56;21.63;;;11.10;;
7160;SDS011;3622;53.576;9.978;2023-01-29T07:00:22;24.33;;;13.40;;
7160;SDS011;3622;53.576;9.978;2023-01-29T07:02:48;22.03;;;11.40;;
7160;SDS011;3622;53.576;9.978;2023-01-29T07:05:14;28.40;;;12.50;;
7160;SDS011;3622;53.576;9.978;2023-01-29T07:07:40;24.30;;;11.77;;
7160;SDS011;3622;53.576;9.978;2023-01-29T07:10:06;23.73;;;11.07;;
7160;SDS011;3622;53.576;9.978;2023-01-29T07:12:32;21.70;;;11.40;;
7160;SDS011;3622;53.576;9.978;2023-01-29T07:14:58;25.70;;;13.07;;
7160;SDS011;3622;53.576;9.978;2023-01-29T07:17:24;18.07;;;10.67;;
7160;SDS011;3622;53.576;9.978;2023-01-29T07:19:50;21.57;;;11.20;;
7160;SDS011;3622;53.576;9.978;2023-01-29T07:22:16;24.53;;;12.33;;
7160;SDS011;3622;53.576;9.978;2023-01-29T07:24:42;26.40;;;11.70;;
7160;SDS011;3622;53.576;9.978;2023-01-29T07:27:08;21.97;;;11.90;;
7160;SDS011;3622;53.576;9.978;2023-01-29T07:29:34;30.60;;;14.20;;
7160;SDS011;3622;53.576;9.978;2023-01-29T07:32:00;26.27;;;12.90;;
7160;SDS011;3622;53.576;9.978;2023-01-29T07:34:26;25.83;;;13.63;;
7160;SDS011;3622;53.576;9.978;2023-01-29T07:36:53;25.73;;;12.97;;
7160;SDS011;3622;53.576;9.978;2023-01-29T07:39:20;27.20;;;13.07;;
7160;SDS011;3622;53.576;9.978;2023-01-29T07:41:46;26.43;;;13.60;;
7160;SDS011;3622;53.576;9.978;2023-01-29T07:44:12;22.80;;;11.80;;
7160;SDS011;3622;53.576;9.978;2023-01-29T07:46:38;33.03;;;15.37;;
7160;SDS011;3622;53.576;9.978;2023-01-29T07:49:04;25.67;;;12.90;;
7160;SDS011;3622;53.576;9.978;2023-01-29T07:51:30;27.43;;;14.10;;
7160;SDS011;3622;53.576;9.978;2023-01-29T07:53:56;31.63;;;15.63;;
7160;SDS011;3622;53.576;9.978;2023-01-29T07:56:22;27.73;;;14.30;;
7160;SDS011;3622;53.576;9.978;2023-01-29T07:58:48;27.37;;;13.27;;
7160;SDS011;3622;53.576;9.978;2023-01-29T08:01:14;25.67;;;12.93;;
7160;SDS011;3622;53.576;9.978;2023-01-29T08:03:40;31.20;;;15.10;;
7160;SDS011;3622;53.576;9.978;2023-01-29T08:06:06;32.33;;;14.87;;
7160;SDS011;3622;53.576;9.978;2023-01-29T08:08:32;24.37;;;12.50;;
7160;SDS011;3622;53.576;9.978;2023-01-29T08:10:59;94.73;;;22.03;;
7160;SDS011;3622;53.576;9.978;2023-01-29T08:13:26;37.00;;;16.03;;
7160;SDS011;3622;53.576;9.978;2023-01-29T08:15:52;25.30;;;13.70;;
7160;SDS011;3622;53.576;9.978;2023-01-29T08:18:18;29.83;;;14.83;;
7160;SDS011;3622;53.576;9.978;2023-01-29T08:20:44;30.47;;;16.30;;
7160;SDS011;3622;53.576;9.978;2023-01-29T08:23:13;28.57;;;14.77;;
7160;SDS011;3622;53.576;9.978;2023-01-29T08:25:40;28.30;;;14.93;;
7160;SDS011;3622;53.576;9.978;2023-01-29T08:28:06;31.77;;;16.47;;
7160;SDS011;3622;53.576;9.978;2023-01-29T08:30:33;30.30;;;15.50;;
7160;SDS011;3622;53.576;9.978;2023-01-29T08:32:59;32.77;;;16.50;;
7160;SDS011;3622;53.576;9.978;2023-01-29T08:35:25;35.90;;;18.03;;
7160;SDS011;3622;53.576;9.978;2023-01-29T08:37:59;41.27;;;18.93;;
7160;SDS011;3622;53.576;9.978;2023-01-29T08:40:25;36.37;;;17.73;;
7160;SDS011;3622;53.576;9.978;2023-01-29T08:42:56;32.57;;;16.43;;
7160;SDS011;3622;53.576;9.978;2023-01-29T08:45:22;32.70;;;17.10;;
7160;SDS011;3622;53.576;9.978;2023-01-29T08:47:48;33.13;;;17.67;;
7160;SDS011;3622;53.576;9.978;2023-01-29T08:50:15;34.20;;;17.83;;
7160;SDS011;3622;53.576;9.978;2023-01-29T08:52:41;36.93;;;18.20;;
7160;SDS011;3622;53.576;9.978;2023-01-29T08:55:08;43.47;;;20.30;;
7160;SDS011;3622;53.576;9.978;2023-01-29T08:57:34;43.00;;;21.63;;
7160;SDS011;3622;53.576;9.978;2023-01-29T09:00:00;45.30;;;21.50;;
7160;SDS011;3622;53.576;9.978;2023-01-29T09:02:26;42.90;;;20.17;;
7160;SDS011;3622;53.576;9.978;2023-01-29T09:04:52;44.37;;;20.23;;
7160;SDS011;3622;53.576;9.978;2023-01-29T09:07:18;44.30;;;21.80;;
7160;SDS011;3622;53.576;9.978;2023-01-29T09:09:45;42.50;;;19.80;;
7160;SDS011;3622;53.576;9.978;2023-01-29T09:12:11;42.13;;;21.30;;
7160;SDS011;3622;53.576;9.978;2023-01-29T09:14:37;43.67;;;20.87;;
7160;SDS011;3622;53.576;9.978;2023-01-29T09:17:03;43.93;;;20.43;;
7160;SDS011;3622;53.576;9.978;2023-01-29T09:19:29;44.97;;;21.37;;
7160;SDS011;3622;53.576;9.978;2023-01-29T09:21:55;45.80;;;21.60;;
7160;SDS011;3622;53.576;9.978;2023-01-29T09:24:21;47.27;;;23.77;;
7160;SDS011;3622;53.576;9.978;2023-01-29T09:26:47;52.13;;;22.57;;
7160;SDS011;3622;53.576;9.978;2023-01-29T09:29:13;50.10;;;22.80;;
7160;SDS011;3622;53.576;9.978;2023-01-29T09:31:39;49.43;;;22.43;;
7160;SDS011;3622;53.576;9.978;2023-01-29T09:34:05;53.23;;;23.50;;
7160;SDS011;3622;53.576;9.978;2023-01-29T09:36:31;47.47;;;22.70;;
7160;SDS011;3622;53.576;9.978;2023-01-29T09:38:57;52.77;;;22.70;;
7160;SDS011;3622;53.576;9.978;2023-01-29T09:41:38;50.50;;;22.50;;
7160;SDS011;3622;53.576;9.978;2023-01-29T09:44:12;43.27;;;23.07;;
7160;SDS011;3622;53.576;9.978;2023-01-29T09:46:42;42.37;;;21.37;;
7160;SDS011;3622;53.576;9.978;2023-01-29T09:52:01;56.60;;;23.87;;
7160;SDS011;3622;53.576;9.978;2023-01-29T09:54:31;47.23;;;23.40;;
7160;SDS011;3622;53.576;9.978;2023-01-29T09:56:58;46.57;;;22.77;;
7160;SDS011;3622;53.576;9.978;2023-01-29T09:59:29;50.83;;;23.60;;
7160;SDS011;3622;53.576;9.978;2023-01-29T10:02:09;44.03;;;21.77;;
7160;SDS011;3622;53.576;9.978;2023-01-29T10:07:23;46.53;;;21.93;;
7160;SDS011;3622;53.576;9.978;2023-01-29T10:17:43;44.37;;;22.10;;
7160;SDS011;3622;53.576;9.978;2023-01-29T10:22:59;48.83;;;22.87;;
7160;SDS011;3622;53.576;9.978;2023-01-29T10:25:26;50.33;;;24.60;;
7160;SDS011;3622;53.576;9.978;2023-01-29T10:27:53;55.53;;;26.40;;
7160;SDS011;3622;53.576;9.978;2023-01-29T10:30:43;58.07;;;25.60;;
7160;SDS011;3622;53.576;9.978;2023-01-29T10:33:08;52.40;;;24.93;;
7160;SDS011;3622;53.576;9.978;2023-01-29T10:35:43;53.53;;;25.20;;
7160;SDS011;3622;53.576;9.978;2023-01-29T10:40:58;57.33;;;24.47;;
7160;SDS011;3622;53.576;9.978;2023-01-29T10:43:35;51.23;;;24.67;;
7160;SDS011;3622;53.576;9.978;2023-01-29T10:46:08;53.20;;;25.37;;
7160;SDS011;3622;53.576;9.978;2023-01-29T10:48:51;51.70;;;24.77;;
7160;SDS011;3622;53.576;9.978;2023-01-29T10:56:54;52.90;;;22.97;;
7160;SDS011;3622;53.576;9.978;2023-01-29T11:01:47;50.00;;;23.20;;
7160;SDS011;3622;53.576;9.978;2023-01-29T11:04:13;52.93;;;24.73;;
7160;SDS011;3622;53.576;9.978;2023-01-29T11:06:40;51.50;;;23.60;;
7160;SDS011;3622;53.576;9.978;2023-01-29T11:11:46;49.47;;;24.90;;
7160;SDS011;3622;53.576;9.978;2023-01-29T11:14:19;44.17;;;23.20;;
7160;SDS011;3622;53.576;9.978;2023-01-29T11:16:46;49.23;;;24.47;;
7160;SDS011;3622;53.576;9.978;2023-01-29T11:19:13;46.87;;;23.30;;
7160;SDS011;3622;53.576;9.978;2023-01-29T11:24:17;45.40;;;22.17;;
7160;SDS011;3622;53.576;9.978;2023-01-29T11:26:45;43.63;;;22.37;;
7160;SDS011;3622;53.576;9.978;2023-01-29T11:31:57;44.87;;;21.80;;
7160;SDS011;3622;53.576;9.978;2023-01-29T11:34:24;39.90;;;21.43;;
7160;SDS011;3622;53.576;9.978;2023-01-29T11:36:57;46.57;;;22.07;;
7160;SDS011;3622;53.576;9.978;2023-01-29T11:39:24;43.63;;;21.77;;
7160;SDS011;3622;53.576;9.978;2023-01-29T11:44:21;41.20;;;21.37;;
7160;SDS011;3622;53.576;9.978;2023-01-29T11:46:51;41.73;;;21.70;;
7160;SDS011;3622;53.576;9.978;2023-01-29T11:49:27;43.40;;;20.97;;
7160;SDS011;3622;53.576;9.978;2023-01-29T11:51:55;39.30;;;20.23;;
7160;SDS011;3622;53.576;9.978;2023-01-29T11:54:22;39.60;;;20.90;;
7160;SDS011;3622;53.576;9.978;2023-01-29T11:56:50;39.90;;;20.40;;
7160;SDS011;3622;53.576;9.978;2023-01-29T11:59:21;38.70;;;20.70;;
7160;SDS011;3622;53.576;9.978;2023-01-29T12:01:49;40.37;;;20.50;;
7160;SDS011;3622;53.576;9.978;2023-01-29T12:04:19;35.23;;;18.70;;
7160;SDS011;3622;53.576;9.978;2023-01-29T12:06:46;40.77;;;20.47;;
7160;SDS011;3622;53.576;9.978;2023-01-29T12:09:16;37.53;;;19.67;;
7160;SDS011;3622;53.576;9.978;2023-01-29T12:11:43;35.73;;;20.03;;
7160;SDS011;3622;53.576;9.978;2023-01-29T12:24:45;37.03;;;18.70;;
7160;SDS011;3622;53.576;9.978;2023-01-29T12:37:54;40.27;;;20.70;;
7160;SDS011;3622;53.576;9.978;2023-01-29T12:40:24;37.07;;;18.67;;
7160;SDS011;3622;53.576;9.978;2023-01-29T12:42:52;42.83;;;21.00;;
7160;SDS011;3622;53.576;9.978;2023-01-29T12:45:21;37.00;;;19.50;;
7160;SDS011;3622;53.576;9.978;2023-01-29T12:47:50;37.60;;;19.37;;
7160;SDS011;3622;53.576;9.978;2023-01-29T12:50:20;37.00;;;19.10;;
7160;SDS011;3622;53.576;9.978;2023-01-29T12:52:48;39.63;;;19.53;;
7160;SDS011;3622;53.576;9.978;2023-01-29T12:55:19;43.00;;;19.90;;
7160;SDS011;3622;53.576;9.978;2023-01-29T12:57:52;43.43;;;21.27;;
7160;SDS011;3622;53.576;9.978;2023-01-29T13:00:37;37.40;;;19.63;;
7160;SDS011;3622;53.576;9.978;2023-01-29T13:03:22;37.93;;;19.63;;
7160;SDS011;3622;53.576;9.978;2023-01-29T13:08:17;40.70;;;19.77;;
7160;SDS011;3622;53.576;9.978;2023-01-29T13:10:47;38.77;;;19.03;;
7160;SDS011;3622;53.576;9.978;2023-01-29T13:13:30;39.23;;;18.93;;
7160;SDS011;3622;53.576;9.978;2023-01-29T13:15:57;35.43;;;19.20;;
7160;SDS011;3622;53.576;9.978;2023-01-29T13:21:03;33.70;;;18.40;;
7160;SDS011;3622;53.576;9.978;2023-01-29T13:23:31;34.50;;;18.97;;
7160;SDS011;3622;53.576;9.978;2023-01-29T13:25:58;33.77;;;18.50;;
7160;SDS011;3622;53.576;9.978;2023-01-29T13:28:25;37.47;;;18.40;;
7160;SDS011;3622;53.576;9.978;2023-01-29T13:33:36;35.00;;;18.40;;
7160;SDS011;3622;53.576;9.978;2023-01-29T13:36:03;34.90;;;18.97;;
7160;SDS011;3622;53.576;9.978;2023-01-29T13:38:30;38.60;;;19.53;;
7160;SDS011;3622;53.576;9.978;2023-01-29T13:41:04;35.53;;;19.57;;
7160;SDS011;3622;53.576;9.978;2023-01-29T13:43:36;35.13;;;18.33;;
7160;SDS011;3622;53.576;9.978;2023-01-29T13:46:10;40.13;;;19.10;;
7160;SDS011;3622;53.576;9.978;2023-01-29T13:48:41;37.30;;;17.60;;
7160;SDS011;3622;53.576;9.978;2023-01-29T13:51:15;33.57;;;18.20;;
7160;SDS011;3622;53.576;9.978;2023-01-29T13:53:51;36.00;;;19.73;;
7160;SDS011;3622;53.576;9.978;2023-01-29T13:59:04;35.30;;;18.90;;
7160;SDS011;3622;53.576;9.978;2023-01-29T14:07:06;35.50;;;18.70;;
7160;SDS011;3622;53.576;9.978;2023-01-29T14:12:02;33.03;;;18.30;;
7160;SDS011;3622;53.576;9.978;2023-01-29T14:17:13;39.30;;;20.00;;
7160;SDS011;3622;53.576;9.978;2023-01-29T14:19:45;37.00;;;19.20;;
7160;SDS011;3622;53.576;9.978;2023-01-29T14:22:17;35.70;;;19.10;;
7160;SDS011;3622;53.576;9.978;2023-01-29T14:24:45;42.40;;;20.27;;
7160;SDS011;3622;53.576;9.978;2023-01-29T14:27:15;39.47;;;19.60;;
7160;SDS011;3622;53.576;9.978;2023-01-29T14:29:44;40.93;;;20.90;;
7160;SDS011;3622;53.576;9.978;2023-01-29T14:32:16;38.83;;;19.70;;
7160;SDS011;3622;53.576;9.978;2023-01-29T14:34:47;41.70;;;21.97;;
7160;SDS011;3622;53.576;9.978;2023-01-29T14:39:47;41.77;;;21.20;;
7160;SDS011;3622;53.576;9.978;2023-01-29T14:42:33;40.20;;;21.87;;
7160;SDS011;3622;53.576;9.978;2023-01-29T14:45:08;42.53;;;20.10;;
7160;SDS011;3622;53.576;9.978;2023-01-29T14:52:43;41.03;;;19.80;;
7160;SDS011;3622;53.576;9.978;2023-01-29T14:55:28;39.83;;;19.83;;
7160;SDS011;3622;53.576;9.978;2023-01-29T14:57:55;42.87;;;21.37;;
7160;SDS011;3622;53.576;9.978;2023-01-29T15:00:29;38.07;;;19.60;;
7160;SDS011;3622;53.576;9.978;2023-01-29T15:02:56;40.60;;;19.07;;
7160;SDS011;3622;53.576;9.978;2023-01-29T15:05:24;39.53;;;20.17;;
7160;SDS011;3622;53.576;9.978;2023-01-29T15:07:55;39.70;;;20.60;;
7160;SDS011;3622;53.576;9.978;2023-01-29T15:12:55;42.07;;;20.43;;
7160;SDS011;3622;53.576;9.978;2023-01-29T15:15:35;37.33;;;19.20;;
7160;SDS011;3622;53.576;9.978;2023-01-29T15:18:04;40.83;;;21.20;;
7160;SDS011;3622;53.576;9.978;2023-01-29T15:20:32;45.20;;;21.90;;
7160;SDS011;3622;53.576;9.978;2023-01-29T15:22:59;41.17;;;22.50;;
7160;SDS011;3622;53.576;9.978;2023-01-29T15:25:28;42.40;;;21.57;;
7160;SDS011;3622;53.576;9.978;2023-01-29T15:27:57;46.73;;;21.93;;
7160;SDS011;3622;53.576;9.978;2023-01-29T15:30:31;41.47;;;21.17;;
7160;SDS011;3622;53.576;9.978;2023-01-29T15:32:57;40.60;;;21.93;;
7160;SDS011;3622;53.576;9.978;2023-01-29T15:35:27;41.30;;;21.70;;
7160;SDS011;3622;53.576;9.978;2023-01-29T15:37:58;46.40;;;22.37;;
7160;SDS011;3622;53.576;9.978;2023-01-29T15:40:24;46.27;;;22.97;;
7160;SDS011;3622;53.576;9.978;2023-01-29T15:42:50;43.77;;;20.97;;
7160;SDS011;3622;53.576;9.978;2023-01-29T15:45:30;45.00;;;23.83;;
7160;SDS011;3622;53.576;9.978;2023-01-29T15:48:03;49.43;;;22.43;;
7160;SDS011;3622;53.576;9.978;2023-01-29T15:50:30;43.60;;;21.33;;
7160;SDS011;3622;53.576;9.978;2023-01-29T15:52:58;46.70;;;22.10;;
7160;SDS011;3622;53.576;9.978;2023-01-29T15:55:25;45.50;;;23.17;;
7160;SDS011;3622;53.576;9.978;2023-01-29T15:57:51;44.87;;;23.10;;
7160;SDS011;3622;53.576;9.978;2023-01-29T16:00:22;45.47;;;22.53;;
7160;SDS011;3622;53.576;9.978;2023-01-29T16:02:49;40.10;;;21.67;;
7160;SDS011;3622;53.576;9.978;2023-01-29T16:05:16;52.63;;;22.47;;
7160;SDS011;3622;53.576;9.978;2023-01-29T16:07:44;41.23;;;20.43;;
7160;SDS011;3622;53.576;9.978;2023-01-29T16:10:14;44.13;;;22.60;;
7160;SDS011;3622;53.576;9.978;2023-01-29T16:12:40;51.33;;;25.30;;
7160;SDS011;3622;53.576;9.978;2023-01-29T16:15:09;61.83;;;26.73;;
7160;SDS011;3622;53.576;9.978;2023-01-29T16:17:39;45.40;;;21.60;;
7160;SDS011;3622;53.576;9.978;2023-01-29T16:20:28;43.43;;;21.40;;
7160;SDS011;3622;53.576;9.978;2023-01-29T16:22:52;41.50;;;21.60;;
7160;SDS011;3622;53.576;9.978;2023-01-29T16:25:18;41.33;;;21.90;;
7160;SDS011;3622;53.576;9.978;2023-01-29T16:27:44;42.13;;;22.27;;
7160;SDS011;3622;53.576;9.978;2023-01-29T16:30:13;42.47;;;22.40;;
7160;SDS011;3622;53.576;9.978;2023-01-29T16:32:40;44.73;;;22.30;;
7160;SDS011;3622;53.576;9.978;2023-01-29T16:35:12;44.90;;;20.93;;
7160;SDS011;3622;53.576;9.978;2023-01-29T16:37:39;43.70;;;22.87;;
7160;SDS011;3622;53.576;9.978;2023-01-29T16:40:12;44.97;;;22.57;;
7160;SDS011;3622;53.576;9.978;2023-01-29T16:42:39;49.07;;;25.20;;
7160;SDS011;3622;53.576;9.978;2023-01-29T16:45:23;45.50;;;22.33;;
7160;SDS011;3622;53.576;9.978;2023-01-29T16:48:00;45.73;;;21.53;;
7160;SDS011;3622;53.576;9.978;2023-01-29T16:50:33;44.83;;;22.77;;
7160;SDS011;3622;53.576;9.978;2023-01-29T16:53:00;42.07;;;22.00;;
7160;SDS011;3622;53.576;9.978;2023-01-29T16:55:37;40.10;;;19.33;;
7160;SDS011;3622;53.576;9.978;2023-01-29T16:58:09;43.00;;;21.77;;
7160;SDS011;3622;53.576;9.978;2023-01-29T17:00:36;52.93;;;23.40;;
7160;SDS011;3622;53.576;9.978;2023-01-29T17:03:03;40.60;;;21.13;;
7160;SDS011;3622;53.576;9.978;2023-01-29T17:05:32;37.33;;;19.60;;
7160;SDS011;3622;53.576;9.978;2023-01-29T17:07:59;42.93;;;22.13;;
7160;SDS011;3622;53.576;9.978;2023-01-29T17:10:26;42.17;;;21.77;;
7160;SDS011;3622;53.576;9.978;2023-01-29T17:12:58;43.40;;;21.03;;
7160;SDS011;3622;53.576;9.978;2023-01-29T17:15:33;39.27;;;19.30;;
7160;SDS011;3622;53.576;9.978;2023-01-29T17:17:59;39.07;;;20.00;;